Timpas, Colorado
Current Conditions -  °F | °C
As of 11:53 AM on Saturday 27 Dec 2014 (Local Time) from KLHX Reporting Station
Clear Clear  
Wind Chill: 17°   Ceiling: Unl
Heat Index: 26°   Visibility: 10mi
Dew Point: 16°   Wind: 9mph
Humidity: 66%   Direction: 270°W
Pressure: 30.21"   Gusts: NA
Location:  37.8368°N, 103.544°W
Report Text: KLHX 271853Z AUTO 27008KT 10SM CLR M03/M09 A3021 RMK AO2 SLP275 T10331089
Loading
Personal Weather Stations






























Interactive Weather Map New forecast layout! Learn more

10-Day Weather Forecast

Advertisements
Track Severe Weather on mobile